Station: EBLB - 18/06/2019 23:25Z (il y a 39 minutes)
EBLB 182325Z AUTO VRB01KT 9999 NCD 12/10 Q1013 BLU
Vent de direction variable: 1 kt
Visibilité > 10 km
Pas de nuages détectés
Température: +12ºC - Point de rosée: +10ºC - QNH: 1013 hPa
Code couleur militaire: BLU (conditions VMC)